Friday, July 3, 2015, 7:41 PM EDT
Back to Local

KMTP, Montauk Airport

Location: Montauk, NY, United States Lat: 41.067
Local Time: 7:41 PM EDT (23:41 GMT) Lon: -71.917
Time Zone: US/Eastern Elev: 6 ft

Show me the last for .
Show Coded

Time T Td Feel RH Dir Speed Gust Alt SLP Vis Weather Sky Remarks
2015-07-03 18:54 71 59 76 65 180° 3 - 30.00 30.00 0 None
2015-07-03 17:54 72 59 76 63 Variable 5 - 29.99 29.99 0 None
2015-07-03 16:54 74 57 77 55 Variable 5 - 30.00 29.99 0 None
2015-07-03 15:54 75 53 77 46 170° 6 - 30.00 29.99 0 None
2015-07-03 14:54 77 53 78 43 160° 3 - 29.99 29.99 0 None
2015-07-03 13:54 77 54 78 44 180° 5 - 29.99 29.99 0 6-hr Min Temp (2pm): 66.9°F
6-hr Max Temp (2pm): 78.1°F
2015-07-03 12:54 77 50 - 38 Variable 3 - 30.00 29.99 0 None
2015-07-03 11:54 75 52 77 44 Variable 5 - 29.99 29.99 0 None
2015-07-03 10:54 72 56 76 57 Variable 5 - 29.98 29.97 0 None
2015-07-03 09:54 71 58 76 63 350° 5 - 29.97 29.96 0 None
2015-07-03 08:54 68 59 - 72 330° 6 - 29.97 29.96 0 None
2015-07-03 07:54 67 59 - 75 320° 6 - 29.95 29.95 0 24-hr Precip Total (8am): 0.08"
6-hr Min Temp (8am): 64.0°F
6-hr Max Temp (8am): 68.0°F
2015-07-03 06:54 66 59 - 78 330° 3 - 29.93 29.93 0 None
2015-07-03 05:54 65 60 - 84 - Calm - 29.91 29.91 0 None
2015-07-03 04:54 66 61 - 83 330° 5 - 29.89 29.89 0 None
2015-07-03 03:54 67 63 - 87 290° 3 - 29.88 29.88 0 None
2015-07-03 02:54 68 64 - 87 270° 5 - 29.88 29.88 0 None
2015-07-03 01:54 67 64 - 90 280° 3 - 29.89 29.89 0 6-hr Precip Total (2am): 0.08"
6-hr Min Temp (2am): 66.9°F
6-hr Max Temp (2am): 70.0°F
2015-07-03 00:54 67 63 - 87 - Calm - 29.88 29.88 0 1-hr Precip Total: 0.08"
24-hr Min Temp (1am): 64.9°F
24-hr Max Temp (1am): 77.0°F
2015-07-02 22:54 69 62 - 78 - Calm - 29.89 29.88 0 None
2015-07-02 20:54 69 61 - 75 - Calm - 29.87 29.87 0 None
2015-07-02 19:54 69 62 - 78 - Calm - 29.87 29.87 0 6-hr Min Temp (8pm): 69.1°F
6-hr Max Temp (8pm): 75.0°F

Support USWX by starting your Amazon purchase here.